sensor_id;sensor_type;location;lat;lon;timestamp;P1;durP1;ratioP1;P2;durP2;ratioP2
19509;SDS011;9896;42.486;26.506;2023-06-14T00:01:24;7.63;;;6.03;;
19509;SDS011;9896;42.486;26.506;2023-06-14T00:03:50;6.10;;;4.80;;
19509;SDS011;9896;42.486;26.506;2023-06-14T00:06:15;8.77;;;5.80;;
19509;SDS011;9896;42.486;26.506;2023-06-14T00:08:42;10.00;;;6.07;;
19509;SDS011;9896;42.486;26.506;2023-06-14T00:11:07;12.60;;;6.60;;
19509;SDS011;9896;42.486;26.506;2023-06-14T00:13:32;7.40;;;6.20;;
19509;SDS011;9896;42.486;26.506;2023-06-14T00:15:58;8.40;;;6.53;;
19509;SDS011;9896;42.486;26.506;2023-06-14T00:18:23;8.57;;;6.30;;
19509;SDS011;9896;42.486;26.506;2023-06-14T00:20:54;11.90;;;6.40;;
19509;SDS011;9896;42.486;26.506;2023-06-14T00:23:20;7.53;;;5.90;;
19509;SDS011;9896;42.486;26.506;2023-06-14T00:25:45;10.37;;;6.63;;
19509;SDS011;9896;42.486;26.506;2023-06-14T00:28:11;8.70;;;6.63;;
19509;SDS011;9896;42.486;26.506;2023-06-14T00:30:36;8.40;;;6.03;;
19509;SDS011;9896;42.486;26.506;2023-06-14T00:33:01;8.23;;;6.30;;
19509;SDS011;9896;42.486;26.506;2023-06-14T00:35:26;9.57;;;6.23;;
19509;SDS011;9896;42.486;26.506;2023-06-14T00:37:52;9.10;;;5.93;;
19509;SDS011;9896;42.486;26.506;2023-06-14T00:40:19;10.80;;;7.13;;
19509;SDS011;9896;42.486;26.506;2023-06-14T00:42:44;8.53;;;6.57;;
19509;SDS011;9896;42.486;26.506;2023-06-14T00:45:10;12.03;;;7.83;;
19509;SDS011;9896;42.486;26.506;2023-06-14T00:47:35;12.37;;;7.80;;
19509;SDS011;9896;42.486;26.506;2023-06-14T00:50:02;9.47;;;7.47;;
19509;SDS011;9896;42.486;26.506;2023-06-14T00:52:27;9.60;;;7.40;;
19509;SDS011;9896;42.486;26.506;2023-06-14T00:54:54;13.20;;;7.67;;
19509;SDS011;9896;42.486;26.506;2023-06-14T00:57:19;10.93;;;7.63;;
19509;SDS011;9896;42.486;26.506;2023-06-14T00:59:47;11.87;;;8.10;;
19509;SDS011;9896;42.486;26.506;2023-06-14T01:02:12;10.10;;;7.43;;
19509;SDS011;9896;42.486;26.506;2023-06-14T01:04:39;10.33;;;8.30;;
19509;SDS011;9896;42.486;26.506;2023-06-14T01:07:23;10.50;;;8.27;;
19509;SDS011;9896;42.486;26.506;2023-06-14T01:14:48;11.97;;;8.07;;
19509;SDS011;9896;42.486;26.506;2023-06-14T01:17:13;14.70;;;7.67;;
19509;SDS011;9896;42.486;26.506;2023-06-14T01:19:42;10.87;;;8.27;;
19509;SDS011;9896;42.486;26.506;2023-06-14T01:22:07;12.47;;;7.70;;
19509;SDS011;9896;42.486;26.506;2023-06-14T01:24:33;12.53;;;8.30;;
19509;SDS011;9896;42.486;26.506;2023-06-14T01:27:00;11.50;;;8.70;;
19509;SDS011;9896;42.486;26.506;2023-06-14T01:29:25;13.80;;;8.33;;
19509;SDS011;9896;42.486;26.506;2023-06-14T01:31:53;17.73;;;8.43;;
19509;SDS011;9896;42.486;26.506;2023-06-14T01:34:18;12.33;;;8.40;;
19509;SDS011;9896;42.486;26.506;2023-06-14T01:36:43;15.97;;;9.63;;
19509;SDS011;9896;42.486;26.506;2023-06-14T01:39:13;12.97;;;8.93;;
19509;SDS011;9896;42.486;26.506;2023-06-14T01:41:39;12.73;;;9.17;;
19509;SDS011;9896;42.486;26.506;2023-06-14T01:44:05;14.93;;;8.87;;
19509;SDS011;9896;42.486;26.506;2023-06-14T01:46:30;14.00;;;9.87;;
19509;SDS011;9896;42.486;26.506;2023-06-14T01:48:56;13.57;;;9.37;;
19509;SDS011;9896;42.486;26.506;2023-06-14T01:51:21;14.07;;;8.93;;
19509;SDS011;9896;42.486;26.506;2023-06-14T01:53:47;11.70;;;8.37;;
19509;SDS011;9896;42.486;26.506;2023-06-14T01:56:13;11.40;;;8.80;;
19509;SDS011;9896;42.486;26.506;2023-06-14T01:58:38;14.67;;;9.77;;
19509;SDS011;9896;42.486;26.506;2023-06-14T02:01:04;13.60;;;9.70;;
19509;SDS011;9896;42.486;26.506;2023-06-14T02:03:30;12.43;;;8.63;;
19509;SDS011;9896;42.486;26.506;2023-06-14T02:05:55;13.30;;;9.07;;
19509;SDS011;9896;42.486;26.506;2023-06-14T02:08:21;13.77;;;8.47;;
19509;SDS011;9896;42.486;26.506;2023-06-14T02:10:47;14.00;;;9.47;;
19509;SDS011;9896;42.486;26.506;2023-06-14T02:13:12;13.60;;;9.27;;
19509;SDS011;9896;42.486;26.506;2023-06-14T02:15:38;15.90;;;9.73;;
19509;SDS011;9896;42.486;26.506;2023-06-14T02:18:03;15.37;;;10.83;;
19509;SDS011;9896;42.486;26.506;2023-06-14T02:20:29;17.23;;;11.27;;
19509;SDS011;9896;42.486;26.506;2023-06-14T02:22:54;15.97;;;10.13;;
19509;SDS011;9896;42.486;26.506;2023-06-14T02:25:20;15.03;;;10.37;;
19509;SDS011;9896;42.486;26.506;2023-06-14T02:27:45;15.77;;;9.83;;
19509;SDS011;9896;42.486;26.506;2023-06-14T02:30:10;17.07;;;10.40;;
19509;SDS011;9896;42.486;26.506;2023-06-14T02:32:36;15.50;;;9.60;;
19509;SDS011;9896;42.486;26.506;2023-06-14T02:35:01;14.73;;;10.20;;
19509;SDS011;9896;42.486;26.506;2023-06-14T02:37:27;13.90;;;9.77;;
19509;SDS011;9896;42.486;26.506;2023-06-14T02:39:52;15.87;;;9.53;;
19509;SDS011;9896;42.486;26.506;2023-06-14T02:42:17;15.20;;;9.87;;
19509;SDS011;9896;42.486;26.506;2023-06-14T02:44:43;21.27;;;9.77;;
19509;SDS011;9896;42.486;26.506;2023-06-14T02:47:09;12.40;;;8.53;;
19509;SDS011;9896;42.486;26.506;2023-06-14T02:49:34;18.53;;;10.50;;
19509;SDS011;9896;42.486;26.506;2023-06-14T02:51:59;13.80;;;10.17;;
19509;SDS011;9896;42.486;26.506;2023-06-14T02:54:25;16.70;;;9.40;;
19509;SDS011;9896;42.486;26.506;2023-06-14T02:56:50;15.10;;;10.30;;
19509;SDS011;9896;42.486;26.506;2023-06-14T02:59:16;16.83;;;10.03;;
19509;SDS011;9896;42.486;26.506;2023-06-14T03:01:42;19.53;;;11.17;;
19509;SDS011;9896;42.486;26.506;2023-06-14T03:04:07;21.33;;;13.90;;
19509;SDS011;9896;42.486;26.506;2023-06-14T03:06:33;20.67;;;14.73;;
19509;SDS011;9896;42.486;26.506;2023-06-14T03:08:59;21.33;;;13.93;;
19509;SDS011;9896;42.486;26.506;2023-06-14T03:11:26;22.03;;;14.63;;
19509;SDS011;9896;42.486;26.506;2023-06-14T03:13:51;18.63;;;13.90;;
19509;SDS011;9896;42.486;26.506;2023-06-14T03:16:17;18.53;;;13.37;;
19509;SDS011;9896;42.486;26.506;2023-06-14T03:18:45;19.03;;;13.07;;
19509;SDS011;9896;42.486;26.506;2023-06-14T03:21:10;18.97;;;12.53;;
19509;SDS011;9896;42.486;26.506;2023-06-14T03:23:36;18.07;;;12.57;;
19509;SDS011;9896;42.486;26.506;2023-06-14T03:26:01;19.33;;;11.57;;
19509;SDS011;9896;42.486;26.506;2023-06-14T03:28:27;16.77;;;11.17;;
19509;SDS011;9896;42.486;26.506;2023-06-14T03:30:52;19.37;;;12.40;;
19509;SDS011;9896;42.486;26.506;2023-06-14T03:33:17;18.97;;;12.63;;
19509;SDS011;9896;42.486;26.506;2023-06-14T03:35:43;18.40;;;12.50;;
19509;SDS011;9896;42.486;26.506;2023-06-14T03:38:08;21.03;;;12.40;;
19509;SDS011;9896;42.486;26.506;2023-06-14T03:40:33;20.47;;;12.53;;
19509;SDS011;9896;42.486;26.506;2023-06-14T03:42:59;20.37;;;12.73;;
19509;SDS011;9896;42.486;26.506;2023-06-14T03:45:24;20.93;;;12.93;;
19509;SDS011;9896;42.486;26.506;2023-06-14T03:47:50;19.90;;;12.93;;
19509;SDS011;9896;42.486;26.506;2023-06-14T03:50:16;23.43;;;14.63;;
19509;SDS011;9896;42.486;26.506;2023-06-14T03:52:41;20.23;;;12.50;;
19509;SDS011;9896;42.486;26.506;2023-06-14T03:55:09;22.30;;;12.20;;
19509;SDS011;9896;42.486;26.506;2023-06-14T03:57:34;24.03;;;13.17;;
19509;SDS011;9896;42.486;26.506;2023-06-14T03:59:59;17.53;;;12.23;;
19509;SDS011;9896;42.486;26.506;2023-06-14T04:02:25;18.23;;;11.60;;
19509;SDS011;9896;42.486;26.506;2023-06-14T04:04:53;20.77;;;13.67;;
19509;SDS011;9896;42.486;26.506;2023-06-14T04:07:19;21.33;;;12.53;;
19509;SDS011;9896;42.486;26.506;2023-06-14T04:09:44;19.43;;;12.27;;
19509;SDS011;9896;42.486;26.506;2023-06-14T04:12:10;19.57;;;10.80;;
19509;SDS011;9896;42.486;26.506;2023-06-14T04:14:36;17.23;;;11.30;;
19509;SDS011;9896;42.486;26.506;2023-06-14T04:17:02;16.43;;;9.87;;
19509;SDS011;9896;42.486;26.506;2023-06-14T04:19:27;13.77;;;9.47;;
19509;SDS011;9896;42.486;26.506;2023-06-14T04:21:53;16.97;;;9.60;;
19509;SDS011;9896;42.486;26.506;2023-06-14T04:24:18;17.93;;;10.63;;
19509;SDS011;9896;42.486;26.506;2023-06-14T04:26:43;13.63;;;10.23;;
19509;SDS011;9896;42.486;26.506;2023-06-14T04:29:13;14.80;;;10.23;;
19509;SDS011;9896;42.486;26.506;2023-06-14T04:31:39;14.93;;;9.97;;
19509;SDS011;9896;42.486;26.506;2023-06-14T04:34:05;11.70;;;9.73;;
19509;SDS011;9896;42.486;26.506;2023-06-14T04:36:31;16.83;;;9.90;;
19509;SDS011;9896;42.486;26.506;2023-06-14T04:38:59;14.37;;;10.63;;
19509;SDS011;9896;42.486;26.506;2023-06-14T04:41:25;17.43;;;9.97;;
19509;SDS011;9896;42.486;26.506;2023-06-14T04:43:56;14.53;;;9.17;;
19509;SDS011;9896;42.486;26.506;2023-06-14T04:46:23;18.17;;;8.97;;
19509;SDS011;9896;42.486;26.506;2023-06-14T04:48:48;13.97;;;9.30;;
19509;SDS011;9896;42.486;26.506;2023-06-14T04:51:15;15.97;;;8.13;;
19509;SDS011;9896;42.486;26.506;2023-06-14T04:53:41;14.27;;;8.63;;
19509;SDS011;9896;42.486;26.506;2023-06-14T04:56:06;12.27;;;8.97;;
19509;SDS011;9896;42.486;26.506;2023-06-14T04:58:32;11.87;;;8.33;;
19509;SDS011;9896;42.486;26.506;2023-06-14T05:00:57;12.10;;;8.33;;
19509;SDS011;9896;42.486;26.506;2023-06-14T05:03:24;13.30;;;9.10;;
19509;SDS011;9896;42.486;26.506;2023-06-14T05:05:50;10.70;;;8.87;;
19509;SDS011;9896;42.486;26.506;2023-06-14T05:08:15;15.53;;;10.10;;
19509;SDS011;9896;42.486;26.506;2023-06-14T05:10:41;17.83;;;10.53;;
19509;SDS011;9896;42.486;26.506;2023-06-14T05:13:06;13.20;;;9.20;;
19509;SDS011;9896;42.486;26.506;2023-06-14T05:15:31;14.57;;;8.33;;
19509;SDS011;9896;42.486;26.506;2023-06-14T05:17:57;13.97;;;8.80;;
19509;SDS011;9896;42.486;26.506;2023-06-14T05:20:23;10.60;;;7.67;;
19509;SDS011;9896;42.486;26.506;2023-06-14T05:22:50;13.93;;;7.00;;
19509;SDS011;9896;42.486;26.506;2023-06-14T05:25:17;11.60;;;6.13;;
19509;SDS011;9896;42.486;26.506;2023-06-14T05:27:42;10.70;;;6.50;;
19509;SDS011;9896;42.486;26.506;2023-06-14T05:30:07;9.80;;;6.40;;
19509;SDS011;9896;42.486;26.506;2023-06-14T05:32:33;14.30;;;7.03;;
19509;SDS011;9896;42.486;26.506;2023-06-14T05:34:59;8.93;;;5.20;;
19509;SDS011;9896;42.486;26.506;2023-06-14T05:37:24;9.97;;;5.40;;
19509;SDS011;9896;42.486;26.506;2023-06-14T05:39:49;11.23;;;5.30;;
19509;SDS011;9896;42.486;26.506;2023-06-14T05:42:15;9.50;;;5.93;;
19509;SDS011;9896;42.486;26.506;2023-06-14T05:44:40;10.97;;;5.40;;
19509;SDS011;9896;42.486;26.506;2023-06-14T05:47:05;10.10;;;4.50;;
19509;SDS011;9896;42.486;26.506;2023-06-14T05:49:31;7.60;;;4.53;;
19509;SDS011;9896;42.486;26.506;2023-06-14T05:51:56;9.23;;;4.87;;
19509;SDS011;9896;42.486;26.506;2023-06-14T05:54:21;4.87;;;4.23;;
19509;SDS011;9896;42.486;26.506;2023-06-14T05:56:46;7.23;;;4.77;;
19509;SDS011;9896;42.486;26.506;2023-06-14T05:59:12;6.00;;;4.07;;
19509;SDS011;9896;42.486;26.506;2023-06-14T06:01:37;6.30;;;4.50;;
19509;SDS011;9896;42.486;26.506;2023-06-14T06:04:05;5.80;;;3.97;;
19509;SDS011;9896;42.486;26.506;2023-06-14T06:06:30;6.70;;;4.70;;
19509;SDS011;9896;42.486;26.506;2023-06-14T06:08:55;6.37;;;3.80;;
19509;SDS011;9896;42.486;26.506;2023-06-14T06:11:21;9.70;;;3.80;;
19509;SDS011;9896;42.486;26.506;2023-06-14T06:13:46;10.93;;;4.23;;
19509;SDS011;9896;42.486;26.506;2023-06-14T06:16:11;5.00;;;4.50;;
19509;SDS011;9896;42.486;26.506;2023-06-14T06:18:36;4.17;;;3.77;;
19509;SDS011;9896;42.486;26.506;2023-06-14T06:21:03;6.33;;;3.77;;
19509;SDS011;9896;42.486;26.506;2023-06-14T06:23:28;8.60;;;3.80;;
19509;SDS011;9896;42.486;26.506;2023-06-14T06:25:54;4.40;;;3.33;;
19509;SDS011;9896;42.486;26.506;2023-06-14T06:28:19;3.80;;;3.17;;
19509;SDS011;9896;42.486;26.506;2023-06-14T06:30:45;3.97;;;3.57;;
19509;SDS011;9896;42.486;26.506;2023-06-14T06:33:11;5.20;;;3.83;;
19509;SDS011;9896;42.486;26.506;2023-06-14T06:35:37;6.87;;;3.60;;
19509;SDS011;9896;42.486;26.506;2023-06-14T06:38:02;6.03;;;4.10;;
19509;SDS011;9896;42.486;26.506;2023-06-14T06:40:27;10.17;;;3.87;;
19509;SDS011;9896;42.486;26.506;2023-06-14T06:42:53;59.47;;;6.37;;
19509;SDS011;9896;42.486;26.506;2023-06-14T06:45:19;6.60;;;3.53;;
19509;SDS011;9896;42.486;26.506;2023-06-14T06:47:44;6.87;;;3.60;;
19509;SDS011;9896;42.486;26.506;2023-06-14T06:50:10;11.00;;;7.00;;
19509;SDS011;9896;42.486;26.506;2023-06-14T06:52:35;9.47;;;7.20;;
19509;SDS011;9896;42.486;26.506;2023-06-14T06:55:01;36.27;;;13.53;;
19509;SDS011;9896;42.486;26.506;2023-06-14T06:57:27;13.10;;;8.30;;
19509;SDS011;9896;42.486;26.506;2023-06-14T06:59:54;6.37;;;3.60;;
19509;SDS011;9896;42.486;26.506;2023-06-14T07:02:19;6.73;;;3.60;;
19509;SDS011;9896;42.486;26.506;2023-06-14T07:04:44;11.43;;;7.03;;
19509;SDS011;9896;42.486;26.506;2023-06-14T07:07:10;5.93;;;4.13;;
19509;SDS011;9896;42.486;26.506;2023-06-14T07:09:35;5.37;;;3.53;;
19509;SDS011;9896;42.486;26.506;2023-06-14T07:12:01;19.90;;;6.78;;
19509;SDS011;9896;42.486;26.506;2023-06-14T07:14:26;5.40;;;3.67;;
19509;SDS011;9896;42.486;26.506;2023-06-14T07:16:51;8.82;;;4.88;;
19509;SDS011;9896;42.486;26.506;2023-06-14T07:19:16;8.93;;;4.57;;
19509;SDS011;9896;42.486;26.506;2023-06-14T07:21:42;13.45;;;8.15;;
19509;SDS011;9896;42.486;26.506;2023-06-14T07:24:07;90.40;;;23.38;;
19509;SDS011;9896;42.486;26.506;2023-06-14T07:26:33;42.75;;;7.53;;
19509;SDS011;9896;42.486;26.506;2023-06-14T07:28:58;49.67;;;20.98;;
19509;SDS011;9896;42.486;26.506;2023-06-14T07:31:23;53.58;;;14.77;;
19509;SDS011;9896;42.486;26.506;2023-06-14T07:33:49;56.25;;;18.98;;
19509;SDS011;9896;42.486;26.506;2023-06-14T07:36:14;5.75;;;5.25;;
19509;SDS011;9896;42.486;26.506;2023-06-14T07:38:39;44.28;;;24.98;;
19509;SDS011;9896;42.486;26.506;2023-06-14T07:41:05;33.57;;;16.07;;
19509;SDS011;9896;42.486;26.506;2023-06-14T07:43:31;79.93;;;24.17;;
19509;SDS011;9896;42.486;26.506;2023-06-14T07:45:56;88.20;;;24.83;;
19509;SDS011;9896;42.486;26.506;2023-06-14T07:48:22;43.33;;;21.67;;
19509;SDS011;9896;42.486;26.506;2023-06-14T07:50:47;28.15;;;24.55;;
19509;SDS011;9896;42.486;26.506;2023-06-14T07:53:12;39.95;;;24.15;;
19509;SDS011;9896;42.486;26.506;2023-06-14T07:55:38;22.30;;;17.58;;
19509;SDS011;9896;42.486;26.506;2023-06-14T07:58:05;7.07;;;3.60;;
19509;SDS011;9896;42.486;26.506;2023-06-14T08:00:31;7.07;;;4.20;;
19509;SDS011;9896;42.486;26.506;2023-06-14T08:02:56;7.10;;;4.10;;
19509;SDS011;9896;42.486;26.506;2023-06-14T08:05:24;13.20;;;4.78;;
19509;SDS011;9896;42.486;26.506;2023-06-14T08:07:49;6.47;;;4.10;;
19509;SDS011;9896;42.486;26.506;2023-06-14T08:10:14;4.30;;;3.53;;
19509;SDS011;9896;42.486;26.506;2023-06-14T08:12:40;5.03;;;3.65;;
19509;SDS011;9896;42.486;26.506;2023-06-14T08:15:05;4.00;;;3.60;;
19509;SDS011;9896;42.486;26.506;2023-06-14T08:17:30;51.65;;;13.57;;
19509;SDS011;9896;42.486;26.506;2023-06-14T08:19:56;8.25;;;3.70;;
19509;SDS011;9896;42.486;26.506;2023-06-14T08:22:22;6.15;;;3.40;;
19509;SDS011;9896;42.486;26.506;2023-06-14T08:24:49;5.57;;;3.70;;
19509;SDS011;9896;42.486;26.506;2023-06-14T08:27:15;5.22;;;3.60;;
19509;SDS011;9896;42.486;26.506;2023-06-14T08:29:40;6.95;;;3.97;;
19509;SDS011;9896;42.486;26.506;2023-06-14T08:32:06;11.40;;;4.40;;
19509;SDS011;9896;42.486;26.506;2023-06-14T08:34:32;6.20;;;3.63;;
19509;SDS011;9896;42.486;26.506;2023-06-14T08:36:57;4.50;;;3.50;;
19509;SDS011;9896;42.486;26.506;2023-06-14T08:39:22;6.32;;;3.90;;
19509;SDS011;9896;42.486;26.506;2023-06-14T08:41:48;9.50;;;3.60;;
19509;SDS011;9896;42.486;26.506;2023-06-14T08:44:14;7.97;;;3.78;;
19509;SDS011;9896;42.486;26.506;2023-06-14T08:46:40;8.55;;;3.80;;
19509;SDS011;9896;42.486;26.506;2023-06-14T08:49:06;8.73;;;4.18;;
19509;SDS011;9896;42.486;26.506;2023-06-14T08:51:33;14.18;;;4.85;;
19509;SDS011;9896;42.486;26.506;2023-06-14T08:54:02;16.98;;;5.57;;
19509;SDS011;9896;42.486;26.506;2023-06-14T08:56:29;4.50;;;4.10;;
19509;SDS011;9896;42.486;26.506;2023-06-14T08:58:55;5.97;;;3.90;;
19509;SDS011;9896;42.486;26.506;2023-06-14T09:01:21;5.47;;;3.67;;
19509;SDS011;9896;42.486;26.506;2023-06-14T09:03:46;5.63;;;3.75;;
19509;SDS011;9896;42.486;26.506;2023-06-14T09:06:13;8.82;;;4.90;;
19509;SDS011;9896;42.486;26.506;2023-06-14T09:08:42;7.80;;;4.82;;
19509;SDS011;9896;42.486;26.506;2023-06-14T09:11:08;145.50;;;22.40;;
19509;SDS011;9896;42.486;26.506;2023-06-14T09:13:33;55.05;;;6.78;;
19509;SDS011;9896;42.486;26.506;2023-06-14T09:15:59;9.40;;;3.70;;
19509;SDS011;9896;42.486;26.506;2023-06-14T09:21:19;6.38;;;5.40;;
19509;SDS011;9896;42.486;26.506;2023-06-14T09:23:47;4.95;;;3.83;;
19509;SDS011;9896;42.486;26.506;2023-06-14T09:26:16;7.30;;;4.35;;
19509;SDS011;9896;42.486;26.506;2023-06-14T09:28:45;4.65;;;4.15;;
19509;SDS011;9896;42.486;26.506;2023-06-14T09:31:11;34.97;;;13.02;;
19509;SDS011;9896;42.486;26.506;2023-06-14T09:33:37;8.05;;;6.88;;
19509;SDS011;9896;42.486;26.506;2023-06-14T09:36:02;5.38;;;3.95;;
19509;SDS011;9896;42.486;26.506;2023-06-14T09:38:28;5.38;;;4.05;;
19509;SDS011;9896;42.486;26.506;2023-06-14T09:40:55;6.88;;;4.53;;
19509;SDS011;9896;42.486;26.506;2023-06-14T09:43:21;3.97;;;3.58;;
19509;SDS011;9896;42.486;26.506;2023-06-14T09:45:46;4.57;;;4.07;;
19509;SDS011;9896;42.486;26.506;2023-06-14T09:48:13;6.35;;;4.53;;
19509;SDS011;9896;42.486;26.506;2023-06-14T09:50:42;6.43;;;4.20;;
19509;SDS011;9896;42.486;26.506;2023-06-14T09:53:10;6.43;;;4.28;;
19509;SDS011;9896;42.486;26.506;2023-06-14T09:55:36;6.43;;;4.22;;
19509;SDS011;9896;42.486;26.506;2023-06-14T09:58:04;8.43;;;4.90;;
19509;SDS011;9896;42.486;26.506;2023-06-14T10:00:29;11.77;;;4.70;;
19509;SDS011;9896;42.486;26.506;2023-06-14T10:02:57;13.35;;;4.82;;
19509;SDS011;9896;42.486;26.506;2023-06-14T10:05:26;7.32;;;4.30;;
19509;SDS011;9896;42.486;26.506;2023-06-14T10:10:19;5.00;;;4.50;;
19509;SDS011;9896;42.486;26.506;2023-06-14T10:12:45;5.38;;;4.60;;
19509;SDS011;9896;42.486;26.506;2023-06-14T10:15:11;4.90;;;4.43;;
19509;SDS011;9896;42.486;26.506;2023-06-14T10:17:47;8.40;;;5.03;;
19509;SDS011;9896;42.486;26.506;2023-06-14T10:20:19;5.43;;;4.30;;
19509;SDS011;9896;42.486;26.506;2023-06-14T10:22:50;6.90;;;5.03;;
19509;SDS011;9896;42.486;26.506;2023-06-14T10:25:27;7.43;;;6.05;;
19509;SDS011;9896;42.486;26.506;2023-06-14T10:28:00;6.15;;;4.93;;
19509;SDS011;9896;42.486;26.506;2023-06-14T10:30:27;5.68;;;5.05;;
19509;SDS011;9896;42.486;26.506;2023-06-14T10:33:06;6.10;;;4.85;;
19509;SDS011;9896;42.486;26.506;2023-06-14T10:35:32;7.28;;;5.50;;
19509;SDS011;9896;42.486;26.506;2023-06-14T10:38:11;8.20;;;5.55;;
19509;SDS011;9896;42.486;26.506;2023-06-14T10:40:37;11.25;;;5.55;;
19509;SDS011;9896;42.486;26.506;2023-06-14T10:48:32;8.73;;;5.38;;
19509;SDS011;9896;42.486;26.506;2023-06-14T10:51:00;11.40;;;4.55;;
19509;SDS011;9896;42.486;26.506;2023-06-14T10:53:27;11.75;;;6.90;;
19509;SDS011;9896;42.486;26.506;2023-06-14T10:55:52;5.47;;;4.85;;
19509;SDS011;9896;42.486;26.506;2023-06-14T10:58:18;5.80;;;5.20;;
19509;SDS011;9896;42.486;26.506;2023-06-14T11:00:43;7.00;;;6.22;;
19509;SDS011;9896;42.486;26.506;2023-06-14T11:08:44;8.88;;;6.05;;
19509;SDS011;9896;42.486;26.506;2023-06-14T11:11:08;7.93;;;6.93;;
19509;SDS011;9896;42.486;26.506;2023-06-14T11:13:34;5.97;;;4.93;;
19509;SDS011;9896;42.486;26.506;2023-06-14T11:16:01;10.35;;;5.32;;
19509;SDS011;9896;42.486;26.506;2023-06-14T11:18:28;7.55;;;5.18;;
19509;SDS011;9896;42.486;26.506;2023-06-14T11:20:53;10.27;;;4.88;;
19509;SDS011;9896;42.486;26.506;2023-06-14T11:23:18;60.38;;;18.65;;
19509;SDS011;9896;42.486;26.506;2023-06-14T11:25:49;28.35;;;5.43;;
19509;SDS011;9896;42.486;26.506;2023-06-14T11:28:14;6.95;;;4.22;;
19509;SDS011;9896;42.486;26.506;2023-06-14T11:30:39;6.35;;;5.75;;
19509;SDS011;9896;42.486;26.506;2023-06-14T11:33:09;7.90;;;6.25;;
19509;SDS011;9896;42.486;26.506;2023-06-14T11:35:34;4.78;;;4.38;;
19509;SDS011;9896;42.486;26.506;2023-06-14T11:38:01;5.78;;;4.13;;
19509;SDS011;9896;42.486;26.506;2023-06-14T11:40:26;11.45;;;5.35;;
19509;SDS011;9896;42.486;26.506;2023-06-14T11:42:59;6.20;;;4.50;;
19509;SDS011;9896;42.486;26.506;2023-06-14T11:45:25;5.82;;;4.68;;
19509;SDS011;9896;42.486;26.506;2023-06-14T11:47:51;8.55;;;4.65;;
19509;SDS011;9896;42.486;26.506;2023-06-14T11:50:16;6.20;;;4.72;;
19509;SDS011;9896;42.486;26.506;2023-06-14T11:52:44;5.85;;;4.25;;
19509;SDS011;9896;42.486;26.506;2023-06-14T11:55:17;4.97;;;4.35;;
19509;SDS011;9896;42.486;26.506;2023-06-14T11:57:42;8.25;;;4.88;;
19509;SDS011;9896;42.486;26.506;2023-06-14T12:00:08;5.80;;;4.70;;
19509;SDS011;9896;42.486;26.506;2023-06-14T12:02:38;7.60;;;4.25;;
19509;SDS011;9896;42.486;26.506;2023-06-14T12:05:05;7.50;;;4.22;;
19509;SDS011;9896;42.486;26.506;2023-06-14T12:07:37;7.40;;;4.30;;
19509;SDS011;9896;42.486;26.506;2023-06-14T12:10:05;6.82;;;4.60;;
19509;SDS011;9896;42.486;26.506;2023-06-14T12:12:34;5.90;;;4.32;;
19509;SDS011;9896;42.486;26.506;2023-06-14T12:15:02;22.20;;;11.27;;
19509;SDS011;9896;42.486;26.506;2023-06-14T12:17:31;5.00;;;4.50;;
19509;SDS011;9896;42.486;26.506;2023-06-14T12:19:57;9.15;;;4.35;;
19509;SDS011;9896;42.486;26.506;2023-06-14T12:22:22;4.93;;;4.40;;
19509;SDS011;9896;42.486;26.506;2023-06-14T12:24:48;5.57;;;4.22;;
19509;SDS011;9896;42.486;26.506;2023-06-14T12:27:13;4.40;;;4.00;;
19509;SDS011;9896;42.486;26.506;2023-06-14T12:29:43;42.20;;;37.63;;
19509;SDS011;9896;42.486;26.506;2023-06-14T12:32:09;66.97;;;49.72;;
19509;SDS011;9896;42.486;26.506;2023-06-14T12:34:34;124.70;;;93.40;;
19509;SDS011;9896;42.486;26.506;2023-06-14T12:37:00;416.98;;;375.13;;
19509;SDS011;9896;42.486;26.506;2023-06-14T12:39:26;73.70;;;54.55;;
19509;SDS011;9896;42.486;26.506;2023-06-14T12:41:51;11.65;;;10.68;;
19509;SDS011;9896;42.486;26.506;2023-06-14T12:44:16;7.55;;;4.82;;
19509;SDS011;9896;42.486;26.506;2023-06-14T12:46:42;6.22;;;4.55;;
19509;SDS011;9896;42.486;26.506;2023-06-14T12:49:08;7.55;;;4.90;;
19509;SDS011;9896;42.486;26.506;2023-06-14T12:51:33;8.27;;;4.68;;
19509;SDS011;9896;42.486;26.506;2023-06-14T12:53:59;6.35;;;5.65;;
19509;SDS011;9896;42.486;26.506;2023-06-14T12:56:24;26.33;;;23.98;;
19509;SDS011;9896;42.486;26.506;2023-06-14T12:58:49;33.97;;;28.15;;
19509;SDS011;9896;42.486;26.506;2023-06-14T13:01:15;486.48;;;360.48;;
19509;SDS011;9896;42.486;26.506;2023-06-14T13:03:40;1999.90;;;580.70;;
19509;SDS011;9896;42.486;26.506;2023-06-14T13:06:05;1967.45;;;518.75;;
19509;SDS011;9896;42.486;26.506;2023-06-14T13:08:31;1999.90;;;999.90;;
19509;SDS011;9896;42.486;26.506;2023-06-14T13:10:56;1999.90;;;999.90;;
19509;SDS011;9896;42.486;26.506;2023-06-14T13:13:22;1999.90;;;999.28;;
19509;SDS011;9896;42.486;26.506;2023-06-14T13:15:47;1999.90;;;999.90;;
19509;SDS011;9896;42.486;26.506;2023-06-14T13:18:14;1999.90;;;834.70;;
19509;SDS011;9896;42.486;26.506;2023-06-14T13:20:40;1879.10;;;368.67;;
19509;SDS011;9896;42.486;26.506;2023-06-14T13:23:05;1999.90;;;919.08;;
19509;SDS011;9896;42.486;26.506;2023-06-14T13:25:33;1673.43;;;999.90;;
19509;SDS011;9896;42.486;26.506;2023-06-14T13:27:58;390.17;;;293.15;;
19509;SDS011;9896;42.486;26.506;2023-06-14T13:30:23;722.78;;;644.90;;
19509;SDS011;9896;42.486;26.506;2023-06-14T13:32:48;256.73;;;175.05;;
19509;SDS011;9896;42.486;26.506;2023-06-14T13:35:15;1060.55;;;836.13;;
19509;SDS011;9896;42.486;26.506;2023-06-14T13:37:41;171.15;;;126.60;;
19509;SDS011;9896;42.486;26.506;2023-06-14T13:40:06;20.30;;;18.20;;
19509;SDS011;9896;42.486;26.506;2023-06-14T13:42:31;63.85;;;29.95;;
19509;SDS011;9896;42.486;26.506;2023-06-14T13:44:57;24.95;;;22.70;;
19509;SDS011;9896;42.486;26.506;2023-06-14T13:47:23;46.97;;;37.55;;
19509;SDS011;9896;42.486;26.506;2023-06-14T13:49:48;10.38;;;9.55;;
19509;SDS011;9896;42.486;26.506;2023-06-14T13:52:13;17.30;;;15.68;;
19509;SDS011;9896;42.486;26.506;2023-06-14T13:54:39;22.25;;;20.80;;
19509;SDS011;9896;42.486;26.506;2023-06-14T13:57:04;150.48;;;62.63;;
19509;SDS011;9896;42.486;26.506;2023-06-14T13:59:29;59.20;;;52.83;;
19509;SDS011;9896;42.486;26.506;2023-06-14T14:01:55;61.85;;;55.35;;
19509;SDS011;9896;42.486;26.506;2023-06-14T14:04:20;204.60;;;125.90;;
19509;SDS011;9896;42.486;26.506;2023-06-14T14:06:45;593.97;;;530.92;;
19509;SDS011;9896;42.486;26.506;2023-06-14T14:09:11;826.10;;;603.53;;
19509;SDS011;9896;42.486;26.506;2023-06-14T14:11:36;656.45;;;526.88;;
19509;SDS011;9896;42.486;26.506;2023-06-14T14:14:02;256.05;;;184.90;;
19509;SDS011;9896;42.486;26.506;2023-06-14T14:16:27;390.83;;;348.95;;
19509;SDS011;9896;42.486;26.506;2023-06-14T14:18:52;278.17;;;165.05;;
19509;SDS011;9896;42.486;26.506;2023-06-14T14:21:18;91.50;;;62.97;;
19509;SDS011;9896;42.486;26.506;2023-06-14T14:23:43;72.60;;;60.33;;
19509;SDS011;9896;42.486;26.506;2023-06-14T14:26:10;127.93;;;75.90;;
19509;SDS011;9896;42.486;26.506;2023-06-14T14:28:36;38.40;;;31.52;;
19509;SDS011;9896;42.486;26.506;2023-06-14T14:31:01;287.48;;;91.15;;
19509;SDS011;9896;42.486;26.506;2023-06-14T14:33:26;125.43;;;82.13;;
19509;SDS011;9896;42.486;26.506;2023-06-14T14:35:53;48.78;;;45.30;;
19509;SDS011;9896;42.486;26.506;2023-06-14T14:38:18;112.10;;;70.18;;
19509;SDS011;9896;42.486;26.506;2023-06-14T14:40:43;119.97;;;96.93;;
19509;SDS011;9896;42.486;26.506;2023-06-14T14:43:09;73.35;;;59.35;;
19509;SDS011;9896;42.486;26.506;2023-06-14T14:45:35;213.90;;;76.75;;
19509;SDS011;9896;42.486;26.506;2023-06-14T14:48:01;1056.53;;;303.77;;